Aérodrome :
LOGIN :

S'inscrire | Disclaimer

   EN    FR    IT 

 










Légende :    VFR   VFR Marginal   IFR   IFR Intensif   IFR Très Intensif
Visi : 
Plafond : 
>= 8 km
>= 3000ft
5 à 8 km
1000 à 3000 ft
1500m à 5 km
500 à 1000 ft
800 à 1500m
200 à 500 ft
< 800m
< 200 ft
Symboles :   Orages  Brouillard  Fortes neiges  Fortes précipitations  Vent > 20 kt
SIGMETs :   Divers  Orages  Givrage  Turbulence  Onde Orograph.  Cendres Volcan.






- Altitude de l'aérodrome : 46 ft
- Code IATA : SNN


EINN - Shannon

DERNIER METAR :
  • 142100Z 34008KT 9999 FEW018 03/00 Q1016 NOSIG

METARs EXPIRÉS :
  • 142030Z 35007KT 9999 FEW018 03/01 Q1016 NOSIG
  • 142000Z 34006KT 9999 FEW018 03/01 Q1016 NOSIG
  • 141930Z 33006KT 9999 FEW020 03/01 Q1015 NOSIG
  • 141900Z 35006KT 9999 FEW020 03/01 Q1015 NOSIG
  • 141830Z 35005KT 9999 FEW020 04/02 Q1015 NOSIG
  • 141800Z 33006KT 9999 FEW020 04/02 Q1015 NOSIG

TAF TAF EINN
Valide du 14 à 18h jusqu'au 15 à 18h UTC


141700Z 1418/1518 35010KT 9999 SCT040
BECMG 1502/1504 34008KT



MET'MAP, la Météo Aéronautique d'un coup d'oeil ! - Copyright ORBIFLY Décembre 2007 - Disclaimer

ORBIFLY MET'MAP TEAM :

Programmation & Développement : Alexandra Zaïnal
Conception & Développement : Baudouin d'Aumeries
Co-Programmation & Développement : Marc-Olivier Méhu
Soutien technique & logistique : Manuel Goepfert

Contact : metmap@orbifly.com




SOURCES & CREDITS :

   NOAA